Phyllis Dunlap — WDA6552 — position and weather

sailwx.info

Track history (hours):
 
Tides and Currents Weather Stations Pressure Air Temp Water Temp Dewpoint Dewpoint Depression Visibility Wind Speed Wind Dir Waves Ship Positions

Phyllis Dunlap

Owner: DUNLAP TOWING CO, LA CONNER, WA. More information available from US FCC via Universal Licensing System and Coast Guard Vessel Documentation Center.

Last reported at 2018-May-25 21:00 UTC. Time now 2018-May-26 14:05 UTC.
Position N 32°06' W 145°48'.

Type: Tow > 200 m length. MMSI: 366833610.

Wind from 060 at 10 knots

Barometer 1029.5 mb
Air temperature 25.3 ° C

Date/timePositionNaut miles runAvg speedWind from/ knotsBaromVisibWave heightAir tempDewpointWater temp
2018-May-25 21:00N 32°06' W 145°48'228 9.5 060 / 101029.5 25.3
2018-May-24 21:00N 34°48' W 142°36'433 9.2 310 / 121027.4 5.4 21.1
2018-May-22 22:00N 40°00' W 136°18'11719.6 220 / 121015.6 0.3 17.1
2018-May-22 16:00N 41°24' W 134°30'   220 / 141017.3 5.4 14.1
2018-May-19 16:24N 48°22' W 125°02'4 9.6
2018-May-19 15:58N 48°25' W 124°58'4 9.4
2018-May-19 15:30N 48°26' W 124°51'510.4
2018-May-19 15:00N 48°26' W 124°43'510.4
2018-May-19 14:30N 48°24' W 124°36'510.4
2018-May-19 14:00N 48°22' W 124°29'510.1
2018-May-19 13:30N 48°20' W 124°22'5 9.6
2018-May-19 12:59N 48°18' W 124°15'5 9.3
2018-May-19 12:30N 48°16' W 124°09'7 8.4
2018-May-19 11:40N 48°13' W 123°60'3 8.8
2018-May-19 11:18N 48°12' W 123°55'3 8.8
2018-May-19 11:00N 48°12' W 123°51'5 9.7
2018-May-19 10:30N 48°12' W 123°44'510.5
2018-May-19 09:59N 48°12' W 123°36'510.4
2018-May-19 09:29N 48°12' W 123°28'510.2
2018-May-19 08:59N 48°12' W 123°20'510.4
2018-May-19 08:30N 48°13' W 123°13'25 9.6
2018-May-19 05:52N 48°03' W 122°38'4 9.8
2018-May-19 05:27N 47°59' W 122°35'510.2
2018-May-19 05:00N 47°56' W 122°30'5 9.0
2018-May-19 04:30N 47°52' W 122°28'5 9.4
2018-May-19 04:00N 47°47' W 122°26'5 9.4
2018-May-19 03:30N 47°43' W 122°26'5 9.5
2018-May-19 03:00N 47°38' W 122°26'4 7.3
2018-May-19 02:30N 47°36' W 122°22'0 0.2
2018-May-19 02:00N 47°36' W 122°22'0 0.9
2018-May-19 01:30N 47°35' W 122°21'0 0.1
2018-May-19 01:00N 47°35' W 122°21'0 0.0
2018-May-19 00:30N 47°35' W 122°21'0 0.0
2018-May-19 00:00N 47°35' W 122°21'0 0.0
2018-May-18 23:30N 47°35' W 122°21'0 0.0
2018-May-18 23:00N 47°35' W 122°21'0 0.0
2018-May-18 22:30N 47°35' W 122°21'0 0.0
2018-May-18 22:00N 47°35' W 122°21'1 2.6
2018-May-18 21:30N 47°36' W 122°23'611.9
2018-May-18 21:00N 47°42' W 122°26'612.8
2018-May-18 20:30N 47°48' W 122°25'713.6
2018-May-18 20:00N 47°54' W 122°21'611.8
2018-May-18 19:30N 47°58' W 122°15'  
Track history (hours):
 
Tides and Currents Weather Stations Pressure Air Temp Water Temp Dewpoint Dewpoint Depression Visibility Wind Speed Wind Dir Waves Ship Positions

Phyllis Dunlap

Owner: DUNLAP TOWING CO, LA CONNER, WA. More information available from US FCC via Universal Licensing System and Coast Guard Vessel Documentation Center.

Last reported at 2018-May-25 21:00 UTC. Time now 2018-May-26 14:05 UTC.
Position N 32°06' W 145°48'.

Type: Tow > 200 m length. MMSI: 366833610.

Wind from 060 at 10 knots

Barometer 1029.5 mb
Air temperature 25.3 ° C

Date/timePositionNaut miles runAvg speedWind from/ knotsBaromVisibWave heightAir tempDewpointWater temp
2018-May-25 21:00N 32°06' W 145°48'228 9.5 060 / 101029.5 25.3
2018-May-24 21:00N 34°48' W 142°36'433 9.2 310 / 121027.4 5.4 21.1
2018-May-22 22:00N 40°00' W 136°18'11719.6 220 / 121015.6 0.3 17.1
2018-May-22 16:00N 41°24' W 134°30'   220 / 141017.3 5.4 14.1
2018-May-19 16:24N 48°22' W 125°02'4 9.6
2018-May-19 15:58N 48°25' W 124°58'4 9.4
2018-May-19 15:30N 48°26' W 124°51'510.4
2018-May-19 15:00N 48°26' W 124°43'510.4
2018-May-19 14:30N 48°24' W 124°36'510.4
2018-May-19 14:00N 48°22' W 124°29'510.1
2018-May-19 13:30N 48°20' W 124°22'5 9.6
2018-May-19 12:59N 48°18' W 124°15'5 9.3
2018-May-19 12:30N 48°16' W 124°09'7 8.4
2018-May-19 11:40N 48°13' W 123°60'3 8.8
2018-May-19 11:18N 48°12' W 123°55'3 8.8
2018-May-19 11:00N 48°12' W 123°51'5 9.7
2018-May-19 10:30N 48°12' W 123°44'510.5
2018-May-19 09:59N 48°12' W 123°36'510.4
2018-May-19 09:29N 48°12' W 123°28'510.2
2018-May-19 08:59N 48°12' W 123°20'510.4
2018-May-19 08:30N 48°13' W 123°13'25 9.6
2018-May-19 05:52N 48°03' W 122°38'4 9.8
2018-May-19 05:27N 47°59' W 122°35'510.2
2018-May-19 05:00N 47°56' W 122°30'5 9.0
2018-May-19 04:30N 47°52' W 122°28'5 9.4
2018-May-19 04:00N 47°47' W 122°26'5 9.4
2018-May-19 03:30N 47°43' W 122°26'5 9.5
2018-May-19 03:00N 47°38' W 122°26'4 7.3
2018-May-19 02:30N 47°36' W 122°22'0 0.2
2018-May-19 02:00N 47°36' W 122°22'0 0.9
2018-May-19 01:30N 47°35' W 122°21'0 0.1
2018-May-19 01:00N 47°35' W 122°21'0 0.0
2018-May-19 00:30N 47°35' W 122°21'0 0.0
2018-May-19 00:00N 47°35' W 122°21'0 0.0
2018-May-18 23:30N 47°35' W 122°21'0 0.0
2018-May-18 23:00N 47°35' W 122°21'0 0.0
2018-May-18 22:30N 47°35' W 122°21'0 0.0
2018-May-18 22:00N 47°35' W 122°21'1 2.6
2018-May-18 21:30N 47°36' W 122°23'611.9
2018-May-18 21:00N 47°42' W 122°26'612.8
2018-May-18 20:30N 47°48' W 122°25'713.6
2018-May-18 20:00N 47°54' W 122°21'611.8
2018-May-18 19:30N 47°58' W 122°15'  

Dump ship's entire track history